sensor_id;sensor_type;location;lat;lon;timestamp;pressure;altitude;pressure_sealevel;temperature;humidity
44044;BME280;29709;52.396;16.796;2023-04-25T00:01:29;100607.09;;;11.03;70.66
44044;BME280;29709;52.396;16.796;2023-04-25T00:04:42;100604.88;;;10.98;70.28
44044;BME280;29709;52.396;16.796;2023-04-25T00:07:57;100606.96;;;10.96;70.35
44044;BME280;29709;52.396;16.796;2023-04-25T00:11:10;100600.61;;;10.88;70.04
44044;BME280;29709;52.396;16.796;2023-04-25T00:14:24;100602.52;;;10.79;70.13
44044;BME280;29709;52.396;16.796;2023-04-25T00:17:37;100605.09;;;10.73;70.21
44044;BME280;29709;52.396;16.796;2023-04-25T00:20:54;100604.41;;;10.70;69.76
44044;BME280;29709;52.396;16.796;2023-04-25T00:24:07;100604.77;;;10.67;69.79
44044;BME280;29709;52.396;16.796;2023-04-25T00:27:20;100599.27;;;10.67;69.54
44044;BME280;29709;52.396;16.796;2023-04-25T00:30:33;100609.41;;;10.59;69.40
44044;BME280;29709;52.396;16.796;2023-04-25T00:33:47;100609.59;;;10.57;69.58
44044;BME280;29709;52.396;16.796;2023-04-25T00:37:00;100625.72;;;10.52;69.36
44044;BME280;29709;52.396;16.796;2023-04-25T00:40:18;100621.80;;;10.47;69.60
44044;BME280;29709;52.396;16.796;2023-04-25T00:43:32;100624.18;;;10.41;69.75
44044;BME280;29709;52.396;16.796;2023-04-25T00:46:47;100619.71;;;10.40;69.54
44044;BME280;29709;52.396;16.796;2023-04-25T00:50:04;100621.63;;;10.32;70.37
44044;BME280;29709;52.396;16.796;2023-04-25T00:53:18;100625.06;;;10.34;70.02
44044;BME280;29709;52.396;16.796;2023-04-25T00:56:32;100623.34;;;10.33;69.94
44044;BME280;29709;52.396;16.796;2023-04-25T00:59:45;100624.52;;;10.30;70.07
44044;BME280;29709;52.396;16.796;2023-04-25T01:03:01;100624.70;;;10.29;70.20
44044;BME280;29709;52.396;16.796;2023-04-25T01:06:16;100622.80;;;10.29;69.95
44044;BME280;29709;52.396;16.796;2023-04-25T01:09:30;100622.12;;;10.27;70.41
44044;BME280;29709;52.396;16.796;2023-04-25T01:12:44;100627.79;;;10.26;71.23
44044;BME280;29709;52.396;16.796;2023-04-25T01:15:59;100626.77;;;10.27;71.67
44044;BME280;29709;52.396;16.796;2023-04-25T01:19:16;100621.27;;;10.27;70.73
44044;BME280;29709;52.396;16.796;2023-04-25T01:22:32;100624.54;;;10.22;71.05
44044;BME280;29709;52.396;16.796;2023-04-25T01:25:46;100622.93;;;10.20;70.95
44044;BME280;29709;52.396;16.796;2023-04-25T01:29:00;100622.60;;;10.15;71.56
44044;BME280;29709;52.396;16.796;2023-04-25T01:32:14;100620.34;;;10.10;71.31
44044;BME280;29709;52.396;16.796;2023-04-25T01:35:27;100627.39;;;10.04;72.51
44044;BME280;29709;52.396;16.796;2023-04-25T01:38:41;100633.23;;;10.01;71.51
44044;BME280;29709;52.396;16.796;2023-04-25T01:41:55;100633.55;;;9.90;72.41
44044;BME280;29709;52.396;16.796;2023-04-25T01:45:09;100632.67;;;9.81;71.83
44044;BME280;29709;52.396;16.796;2023-04-25T01:48:23;100629.73;;;9.75;71.76
44044;BME280;29709;52.396;16.796;2023-04-25T01:51:36;100624.88;;;9.69;71.70
44044;BME280;29709;52.396;16.796;2023-04-25T01:54:50;100615.11;;;9.66;71.63
44044;BME280;29709;52.396;16.796;2023-04-25T01:58:04;100628.15;;;9.64;72.09
44044;BME280;29709;52.396;16.796;2023-04-25T02:01:22;100625.92;;;9.60;71.86
44044;BME280;29709;52.396;16.796;2023-04-25T02:04:35;100627.25;;;9.55;71.96
44044;BME280;29709;52.396;16.796;2023-04-25T02:07:48;100624.51;;;9.55;71.87
44044;BME280;29709;52.396;16.796;2023-04-25T02:11:01;100631.55;;;9.58;72.57
44044;BME280;29709;52.396;16.796;2023-04-25T02:14:16;100633.97;;;9.61;71.64
44044;BME280;29709;52.396;16.796;2023-04-25T02:17:29;100634.50;;;9.65;71.82
44044;BME280;29709;52.396;16.796;2023-04-25T02:20:45;100635.52;;;9.64;71.42
44044;BME280;29709;52.396;16.796;2023-04-25T02:23:58;100632.27;;;9.60;71.84
44044;BME280;29709;52.396;16.796;2023-04-25T02:27:13;100630.37;;;9.61;71.74
44044;BME280;29709;52.396;16.796;2023-04-25T02:30:26;100631.23;;;9.61;71.23
44044;BME280;29709;52.396;16.796;2023-04-25T02:33:39;100640.50;;;9.60;71.01
44044;BME280;29709;52.396;16.796;2023-04-25T02:36:53;100640.28;;;9.53;71.44
44044;BME280;29709;52.396;16.796;2023-04-25T02:40:07;100640.93;;;9.47;71.53
44044;BME280;29709;52.396;16.796;2023-04-25T02:43:21;100644.88;;;9.45;71.40
44044;BME280;29709;52.396;16.796;2023-04-25T02:46:35;100637.15;;;9.40;71.74
44044;BME280;29709;52.396;16.796;2023-04-25T02:49:48;100648.81;;;9.42;71.37
44044;BME280;29709;52.396;16.796;2023-04-25T02:53:01;100638.71;;;9.43;71.75
44044;BME280;29709;52.396;16.796;2023-04-25T02:56:14;100643.16;;;9.44;71.55
44044;BME280;29709;52.396;16.796;2023-04-25T02:59:27;100629.45;;;9.44;71.29
44044;BME280;29709;52.396;16.796;2023-04-25T03:02:41;100627.73;;;9.43;71.41
44044;BME280;29709;52.396;16.796;2023-04-25T03:05:54;100629.10;;;9.39;71.31
44044;BME280;29709;52.396;16.796;2023-04-25T03:09:07;100625.12;;;9.33;71.90
44044;BME280;29709;52.396;16.796;2023-04-25T03:12:20;100628.50;;;9.27;71.76
44044;BME280;29709;52.396;16.796;2023-04-25T03:15:35;100620.27;;;9.27;72.18
44044;BME280;29709;52.396;16.796;2023-04-25T03:18:50;100623.01;;;9.27;72.09
44044;BME280;29709;52.396;16.796;2023-04-25T03:22:03;100619.41;;;9.26;72.06
44044;BME280;29709;52.396;16.796;2023-04-25T03:25:16;100616.20;;;9.31;71.85
44044;BME280;29709;52.396;16.796;2023-04-25T03:28:30;100619.28;;;9.28;72.03
44044;BME280;29709;52.396;16.796;2023-04-25T03:31:43;100617.87;;;9.24;72.14
44044;BME280;29709;52.396;16.796;2023-04-25T03:34:56;100615.12;;;9.24;72.16
44044;BME280;29709;52.396;16.796;2023-04-25T03:38:09;100621.12;;;9.19;72.28
44044;BME280;29709;52.396;16.796;2023-04-25T03:41:22;100617.30;;;9.12;73.04
44044;BME280;29709;52.396;16.796;2023-04-25T03:44:35;100619.02;;;9.13;72.63
44044;BME280;29709;52.396;16.796;2023-04-25T03:47:48;100630.84;;;9.14;73.11
44044;BME280;29709;52.396;16.796;2023-04-25T03:51:02;100632.89;;;9.12;72.67
44044;BME280;29709;52.396;16.796;2023-04-25T03:54:15;100632.54;;;9.07;74.01
44044;BME280;29709;52.396;16.796;2023-04-25T03:57:29;100634.26;;;9.08;73.25
44044;BME280;29709;52.396;16.796;2023-04-25T04:00:42;100638.55;;;9.10;73.99
44044;BME280;29709;52.396;16.796;2023-04-25T04:03:55;100635.80;;;9.10;73.12
44044;BME280;29709;52.396;16.796;2023-04-25T04:07:09;100643.17;;;9.10;74.50
44044;BME280;29709;52.396;16.796;2023-04-25T04:10:23;100621.07;;;9.11;73.49
44044;BME280;29709;52.396;16.796;2023-04-25T04:13:36;100637.69;;;9.10;73.74
44044;BME280;29709;52.396;16.796;2023-04-25T04:16:50;100645.58;;;9.13;74.82
44044;BME280;29709;52.396;16.796;2023-04-25T04:20:05;100643.58;;;9.23;74.12
44044;BME280;29709;52.396;16.796;2023-04-25T04:23:19;100652.32;;;9.26;73.55
44044;BME280;29709;52.396;16.796;2023-04-25T04:26:35;100646.70;;;9.28;73.84
44044;BME280;29709;52.396;16.796;2023-04-25T04:29:51;100657.52;;;9.30;73.85
44044;BME280;29709;52.396;16.796;2023-04-25T04:33:06;100657.00;;;9.34;73.73
44044;BME280;29709;52.396;16.796;2023-04-25T04:36:20;100660.13;;;9.39;74.40
44044;BME280;29709;52.396;16.796;2023-04-25T04:39:36;100661.34;;;9.45;73.92
44044;BME280;29709;52.396;16.796;2023-04-25T04:42:49;100664.47;;;9.58;73.38
44044;BME280;29709;52.396;16.796;2023-04-25T04:46:02;100665.02;;;9.62;72.72
44044;BME280;29709;52.396;16.796;2023-04-25T04:49:18;100656.63;;;9.63;73.26
44044;BME280;29709;52.396;16.796;2023-04-25T04:52:32;100670.86;;;9.67;72.94
44044;BME280;29709;52.396;16.796;2023-04-25T04:55:45;100667.80;;;9.70;72.95
44044;BME280;29709;52.396;16.796;2023-04-25T04:58:59;100666.95;;;9.77;72.78
44044;BME280;29709;52.396;16.796;2023-04-25T05:02:12;100659.41;;;9.79;72.90
44044;BME280;29709;52.396;16.796;2023-04-25T05:05:25;100663.89;;;9.89;72.77
44044;BME280;29709;52.396;16.796;2023-04-25T05:08:38;100668.04;;;9.93;72.66
44044;BME280;29709;52.396;16.796;2023-04-25T05:11:53;100665.84;;;10.04;72.55
44044;BME280;29709;52.396;16.796;2023-04-25T05:15:07;100668.08;;;10.17;72.37
44044;BME280;29709;52.396;16.796;2023-04-25T05:18:20;100665.39;;;10.25;71.78
44044;BME280;29709;52.396;16.796;2023-04-25T05:21:33;100665.22;;;10.27;71.25
44044;BME280;29709;52.396;16.796;2023-04-25T05:24:47;100672.79;;;10.33;71.86
44044;BME280;29709;52.396;16.796;2023-04-25T05:28:02;100669.88;;;10.43;71.31
44044;BME280;29709;52.396;16.796;2023-04-25T05:31:15;100670.90;;;10.50;70.99
44044;BME280;29709;52.396;16.796;2023-04-25T05:34:28;100672.98;;;10.64;70.47
44044;BME280;29709;52.396;16.796;2023-04-25T05:37:41;100674.34;;;10.68;69.89
44044;BME280;29709;52.396;16.796;2023-04-25T05:40:55;100671.06;;;10.73;69.59
44044;BME280;29709;52.396;16.796;2023-04-25T05:44:08;100671.06;;;10.89;69.31
44044;BME280;29709;52.396;16.796;2023-04-25T05:47:22;100671.55;;;11.01;69.10
44044;BME280;29709;52.396;16.796;2023-04-25T05:50:35;100674.80;;;11.12;68.54
44044;BME280;29709;52.396;16.796;2023-04-25T05:53:48;100672.58;;;11.16;68.37
44044;BME280;29709;52.396;16.796;2023-04-25T05:57:01;100687.70;;;11.12;68.35
44044;BME280;29709;52.396;16.796;2023-04-25T06:00:15;100684.58;;;11.23;68.17
44044;BME280;29709;52.396;16.796;2023-04-25T06:03:28;100686.45;;;11.31;68.16
44044;BME280;29709;52.396;16.796;2023-04-25T06:06:42;100678.52;;;11.36;67.93
44044;BME280;29709;52.396;16.796;2023-04-25T06:09:56;100676.98;;;11.33;67.37
44044;BME280;29709;52.396;16.796;2023-04-25T06:13:09;100684.07;;;11.27;67.01
44044;BME280;29709;52.396;16.796;2023-04-25T06:16:22;100678.40;;;11.21;67.51
44044;BME280;29709;52.396;16.796;2023-04-25T06:19:38;100686.15;;;11.25;67.26
44044;BME280;29709;52.396;16.796;2023-04-25T06:22:51;100683.33;;;11.42;67.43
44044;BME280;29709;52.396;16.796;2023-04-25T06:26:05;100682.45;;;11.49;66.93
44044;BME280;29709;52.396;16.796;2023-04-25T06:29:18;100687.75;;;11.59;66.77
44044;BME280;29709;52.396;16.796;2023-04-25T06:32:31;100683.77;;;11.62;66.35
44044;BME280;29709;52.396;16.796;2023-04-25T06:35:46;100682.55;;;11.64;66.38
44044;BME280;29709;52.396;16.796;2023-04-25T06:39:00;100685.31;;;11.64;65.91
44044;BME280;29709;52.396;16.796;2023-04-25T06:42:13;100674.98;;;11.66;65.91
44044;BME280;29709;52.396;16.796;2023-04-25T06:45:26;100682.53;;;11.72;65.72
44044;BME280;29709;52.396;16.796;2023-04-25T06:48:39;100684.55;;;11.87;66.07
44044;BME280;29709;52.396;16.796;2023-04-25T06:51:53;100675.73;;;11.99;66.07
44044;BME280;29709;52.396;16.796;2023-04-25T06:55:06;100671.52;;;12.11;64.76
44044;BME280;29709;52.396;16.796;2023-04-25T06:58:19;100674.87;;;11.99;65.20
44044;BME280;29709;52.396;16.796;2023-04-25T07:01:33;100681.91;;;12.01;64.91
44044;BME280;29709;52.396;16.796;2023-04-25T07:04:46;100678.11;;;12.02;64.96
44044;BME280;29709;52.396;16.796;2023-04-25T07:07:59;100681.51;;;12.12;64.98
44044;BME280;29709;52.396;16.796;2023-04-25T07:11:13;100680.94;;;12.17;64.63
44044;BME280;29709;52.396;16.796;2023-04-25T07:14:26;100684.51;;;12.26;64.85
44044;BME280;29709;52.396;16.796;2023-04-25T07:17:40;100675.34;;;12.33;63.77
44044;BME280;29709;52.396;16.796;2023-04-25T07:20:53;100678.57;;;12.37;64.05
44044;BME280;29709;52.396;16.796;2023-04-25T07:24:06;100686.31;;;12.41;63.67
44044;BME280;29709;52.396;16.796;2023-04-25T07:27:20;100683.61;;;12.56;63.70
44044;BME280;29709;52.396;16.796;2023-04-25T07:30:34;100679.42;;;12.60;62.96
44044;BME280;29709;52.396;16.796;2023-04-25T07:33:48;100680.18;;;12.54;63.08
44044;BME280;29709;52.396;16.796;2023-04-25T07:37:01;100683.47;;;12.50;62.82
44044;BME280;29709;52.396;16.796;2023-04-25T07:40:14;100689.60;;;12.60;63.35
44044;BME280;29709;52.396;16.796;2023-04-25T07:43:30;100689.66;;;12.75;63.14
44044;BME280;29709;52.396;16.796;2023-04-25T07:46:43;100687.13;;;12.88;62.16
44044;BME280;29709;52.396;16.796;2023-04-25T07:49:56;100680.77;;;12.87;61.29
44044;BME280;29709;52.396;16.796;2023-04-25T07:53:11;100676.70;;;12.98;61.88
44044;BME280;29709;52.396;16.796;2023-04-25T07:56:24;100683.46;;;13.10;61.63
44044;BME280;29709;52.396;16.796;2023-04-25T07:59:37;100682.92;;;13.15;61.89
44044;BME280;29709;52.396;16.796;2023-04-25T08:02:50;100688.48;;;13.29;61.01
44044;BME280;29709;52.396;16.796;2023-04-25T08:06:04;100681.82;;;13.53;61.05
44044;BME280;29709;52.396;16.796;2023-04-25T08:09:19;100681.84;;;13.68;59.89
44044;BME280;29709;52.396;16.796;2023-04-25T08:12:32;100689.91;;;13.70;60.01
44044;BME280;29709;52.396;16.796;2023-04-25T08:15:45;100684.96;;;13.80;59.44
44044;BME280;29709;52.396;16.796;2023-04-25T08:18:59;100683.72;;;13.82;59.29
44044;BME280;29709;52.396;16.796;2023-04-25T08:22:13;100683.02;;;13.95;59.56
44044;BME280;29709;52.396;16.796;2023-04-25T08:26:02;100689.03;;;13.99;58.83
44044;BME280;29709;52.396;16.796;2023-04-25T08:29:16;100687.28;;;14.12;59.28
44044;BME280;29709;52.396;16.796;2023-04-25T08:32:29;100691.90;;;14.27;57.81
44044;BME280;29709;52.396;16.796;2023-04-25T08:35:43;100690.48;;;14.31;58.19
44044;BME280;29709;52.396;16.796;2023-04-25T08:38:58;100692.19;;;14.32;57.45
44044;BME280;29709;52.396;16.796;2023-04-25T08:42:12;100706.35;;;14.43;57.64
44044;BME280;29709;52.396;16.796;2023-04-25T08:45:27;100704.76;;;14.49;57.40
44044;BME280;29709;52.396;16.796;2023-04-25T08:48:42;100706.19;;;14.45;56.20
44044;BME280;29709;52.396;16.796;2023-04-25T08:52:00;100705.82;;;14.33;55.99
44044;BME280;29709;52.396;16.796;2023-04-25T08:55:15;100709.43;;;14.34;56.83
44044;BME280;29709;52.396;16.796;2023-04-25T08:58:29;100710.17;;;14.42;56.96
44044;BME280;29709;52.396;16.796;2023-04-25T09:01:43;100709.32;;;14.42;56.48
44044;BME280;29709;52.396;16.796;2023-04-25T09:04:57;100717.34;;;14.52;56.80
44044;BME280;29709;52.396;16.796;2023-04-25T09:08:11;100719.80;;;14.47;55.87
44044;BME280;29709;52.396;16.796;2023-04-25T09:11:24;100728.39;;;14.52;56.68
44044;BME280;29709;52.396;16.796;2023-04-25T09:14:37;100724.86;;;14.43;55.29
44044;BME280;29709;52.396;16.796;2023-04-25T09:17:57;100732.27;;;14.57;55.75
44044;BME280;29709;52.396;16.796;2023-04-25T09:21:11;100735.57;;;14.67;55.91
44044;BME280;29709;52.396;16.796;2023-04-25T09:27:52;100738.53;;;14.87;54.32
44044;BME280;29709;52.396;16.796;2023-04-25T09:31:05;100735.13;;;14.85;54.51
44044;BME280;29709;52.396;16.796;2023-04-25T09:34:19;100728.64;;;14.57;54.74
44044;BME280;29709;52.396;16.796;2023-04-25T09:37:32;100731.73;;;14.47;55.43
44044;BME280;29709;52.396;16.796;2023-04-25T09:40:46;100733.52;;;14.55;56.01
44044;BME280;29709;52.396;16.796;2023-04-25T09:44:02;100734.59;;;14.75;54.95
44044;BME280;29709;52.396;16.796;2023-04-25T09:47:16;100732.43;;;14.92;54.87
44044;BME280;29709;52.396;16.796;2023-04-25T09:50:30;100731.59;;;15.19;54.37
44044;BME280;29709;52.396;16.796;2023-04-25T09:53:45;100737.98;;;15.20;53.04
44044;BME280;29709;52.396;16.796;2023-04-25T09:57:17;100737.02;;;15.06;53.35
44044;BME280;29709;52.396;16.796;2023-04-25T10:00:26;100742.03;;;14.96;53.91
44044;BME280;29709;52.396;16.796;2023-04-25T10:03:40;100740.25;;;14.88;54.12
44044;BME280;29709;52.396;16.796;2023-04-25T10:06:57;100739.92;;;14.77;53.15
44044;BME280;29709;52.396;16.796;2023-04-25T10:10:13;100751.19;;;14.75;53.07
44044;BME280;29709;52.396;16.796;2023-04-25T10:13:27;100750.46;;;14.66;52.59
44044;BME280;29709;52.396;16.796;2023-04-25T10:16:41;100756.60;;;14.62;53.23
44044;BME280;29709;52.396;16.796;2023-04-25T10:19:56;100756.11;;;14.58;52.66
44044;BME280;29709;52.396;16.796;2023-04-25T10:23:15;100753.82;;;14.62;52.94
44044;BME280;29709;52.396;16.796;2023-04-25T10:26:30;100748.29;;;14.62;52.95
44044;BME280;29709;52.396;16.796;2023-04-25T10:29:43;100749.86;;;14.50;52.28
44044;BME280;29709;52.396;16.796;2023-04-25T10:32:59;100755.38;;;14.35;53.26
44044;BME280;29709;52.396;16.796;2023-04-25T10:36:14;100755.58;;;14.33;53.65
44044;BME280;29709;52.396;16.796;2023-04-25T10:39:27;100769.30;;;14.41;54.36
44044;BME280;29709;52.396;16.796;2023-04-25T10:42:41;100753.55;;;14.42;52.94
44044;BME280;29709;52.396;16.796;2023-04-25T10:45:54;100758.44;;;14.25;53.67
44044;BME280;29709;52.396;16.796;2023-04-25T10:49:08;100762.27;;;14.24;53.57
44044;BME280;29709;52.396;16.796;2023-04-25T10:52:26;100752.01;;;14.18;53.43
44044;BME280;29709;52.396;16.796;2023-04-25T10:55:51;100759.24;;;14.19;53.32
44044;BME280;29709;52.396;16.796;2023-04-25T10:59:06;100756.54;;;14.26;53.13
44044;BME280;29709;52.396;16.796;2023-04-25T11:02:19;100744.18;;;14.58;53.59
44044;BME280;29709;52.396;16.796;2023-04-25T11:05:35;100741.19;;;14.74;52.76
44044;BME280;29709;52.396;16.796;2023-04-25T11:08:50;100729.91;;;14.97;53.15
44044;BME280;29709;52.396;16.796;2023-04-25T11:12:04;100747.14;;;15.20;52.34
44044;BME280;29709;52.396;16.796;2023-04-25T11:15:19;100743.66;;;15.33;51.00
44044;BME280;29709;52.396;16.796;2023-04-25T11:18:33;100741.44;;;15.22;50.45
44044;BME280;29709;52.396;16.796;2023-04-25T11:21:47;100752.98;;;15.04;50.62
44044;BME280;29709;52.396;16.796;2023-04-25T11:25:05;100753.71;;;14.91;50.73
44044;BME280;29709;52.396;16.796;2023-04-25T11:28:22;100755.09;;;14.81;51.41
44044;BME280;29709;52.396;16.796;2023-04-25T11:31:36;100759.25;;;14.70;51.28
44044;BME280;29709;52.396;16.796;2023-04-25T11:34:49;100758.70;;;14.60;51.72
44044;BME280;29709;52.396;16.796;2023-04-25T11:38:02;100762.43;;;14.52;51.69
44044;BME280;29709;52.396;16.796;2023-04-25T11:41:16;100766.93;;;14.38;51.68
44044;BME280;29709;52.396;16.796;2023-04-25T11:44:29;100776.58;;;14.28;51.90
44044;BME280;29709;52.396;16.796;2023-04-25T11:47:43;100775.23;;;14.24;52.30
44044;BME280;29709;52.396;16.796;2023-04-25T11:50:56;100776.48;;;14.21;53.09
44044;BME280;29709;52.396;16.796;2023-04-25T11:54:10;100788.78;;;14.04;54.69
44044;BME280;29709;52.396;16.796;2023-04-25T11:57:24;100797.74;;;13.91;55.98
44044;BME280;29709;52.396;16.796;2023-04-25T12:00:42;100793.75;;;13.79;56.19
44044;BME280;29709;52.396;16.796;2023-04-25T12:03:56;100790.48;;;13.75;56.14
44044;BME280;29709;52.396;16.796;2023-04-25T12:07:09;100785.66;;;13.77;56.38
44044;BME280;29709;52.396;16.796;2023-04-25T12:10:24;100794.79;;;13.78;56.17
44044;BME280;29709;52.396;16.796;2023-04-25T12:13:38;100788.13;;;13.87;56.04
44044;BME280;29709;52.396;16.796;2023-04-25T12:16:51;100787.44;;;13.85;55.29
44044;BME280;29709;52.396;16.796;2023-04-25T12:20:10;100788.80;;;13.89;55.42
44044;BME280;29709;52.396;16.796;2023-04-25T12:23:27;100792.11;;;13.84;55.65
44044;BME280;29709;52.396;16.796;2023-04-25T12:26:47;100792.62;;;13.88;56.11
44044;BME280;29709;52.396;16.796;2023-04-25T12:30:00;100795.38;;;13.88;55.62
44044;BME280;29709;52.396;16.796;2023-04-25T12:33:14;100804.79;;;13.94;56.40
44044;BME280;29709;52.396;16.796;2023-04-25T12:36:27;100805.36;;;14.04;56.38
44044;BME280;29709;52.396;16.796;2023-04-25T12:39:41;100809.08;;;14.11;56.44
44044;BME280;29709;52.396;16.796;2023-04-25T12:42:54;100811.27;;;14.01;57.08
44044;BME280;29709;52.396;16.796;2023-04-25T12:46:09;100813.45;;;14.05;57.38
44044;BME280;29709;52.396;16.796;2023-04-25T12:49:23;100815.00;;;14.08;57.10
44044;BME280;29709;52.396;16.796;2023-04-25T12:52:38;100803.47;;;14.19;56.62
44044;BME280;29709;52.396;16.796;2023-04-25T12:55:51;100804.95;;;14.36;56.76
44044;BME280;29709;52.396;16.796;2023-04-25T12:59:04;100799.64;;;14.50;56.33
44044;BME280;29709;52.396;16.796;2023-04-25T13:02:17;100789.27;;;14.73;56.01
44044;BME280;29709;52.396;16.796;2023-04-25T13:05:31;100816.94;;;14.73;56.06
44044;BME280;29709;52.396;16.796;2023-04-25T13:08:44;100831.47;;;14.16;54.49
44044;BME280;29709;52.396;16.796;2023-04-25T13:11:57;100820.58;;;13.55;58.09
44044;BME280;29709;52.396;16.796;2023-04-25T13:15:11;100819.71;;;13.09;59.13
44044;BME280;29709;52.396;16.796;2023-04-25T13:18:25;100819.55;;;12.57;61.89
44044;BME280;29709;52.396;16.796;2023-04-25T13:21:39;100809.55;;;12.25;63.85
44044;BME280;29709;52.396;16.796;2023-04-25T13:24:52;100814.51;;;12.29;65.48
44044;BME280;29709;52.396;16.796;2023-04-25T13:28:06;100815.22;;;12.31;65.71
44044;BME280;29709;52.396;16.796;2023-04-25T13:31:19;100825.80;;;12.51;65.06
44044;BME280;29709;52.396;16.796;2023-04-25T13:34:33;100812.29;;;12.64;64.79
44044;BME280;29709;52.396;16.796;2023-04-25T13:37:47;100816.90;;;12.71;64.17
44044;BME280;29709;52.396;16.796;2023-04-25T13:41:00;100819.39;;;12.81;65.48
44044;BME280;29709;52.396;16.796;2023-04-25T13:44:14;100824.05;;;12.81;67.08
44044;BME280;29709;52.396;16.796;2023-04-25T13:47:28;100827.76;;;12.96;65.52
44044;BME280;29709;52.396;16.796;2023-04-25T13:50:45;100822.95;;;13.13;65.43
44044;BME280;29709;52.396;16.796;2023-04-25T13:53:59;100833.52;;;13.09;66.30
44044;BME280;29709;52.396;16.796;2023-04-25T13:57:12;100832.26;;;13.20;66.93
44044;BME280;29709;52.396;16.796;2023-04-25T14:00:25;100830.00;;;13.23;65.19
44044;BME280;29709;52.396;16.796;2023-04-25T14:03:39;100835.09;;;13.35;65.60
44044;BME280;29709;52.396;16.796;2023-04-25T14:06:52;100827.95;;;13.40;64.99
44044;BME280;29709;52.396;16.796;2023-04-25T14:10:06;100829.53;;;13.57;65.06
44044;BME280;29709;52.396;16.796;2023-04-25T14:13:19;100823.63;;;13.75;64.90
44044;BME280;29709;52.396;16.796;2023-04-25T14:16:33;100829.66;;;13.79;64.32
44044;BME280;29709;52.396;16.796;2023-04-25T14:19:49;100833.02;;;13.51;63.61
44044;BME280;29709;52.396;16.796;2023-04-25T14:23:03;100836.28;;;13.09;64.48
44044;BME280;29709;52.396;16.796;2023-04-25T14:26:17;100843.73;;;12.78;64.19
44044;BME280;29709;52.396;16.796;2023-04-25T14:29:30;100855.73;;;12.62;63.19
44044;BME280;29709;52.396;16.796;2023-04-25T14:32:44;100847.53;;;12.46;62.64
44044;BME280;29709;52.396;16.796;2023-04-25T14:35:58;100859.77;;;12.43;63.31
44044;BME280;29709;52.396;16.796;2023-04-25T14:39:12;100857.35;;;12.40;62.46
44044;BME280;29709;52.396;16.796;2023-04-25T14:42:28;100868.32;;;12.56;63.53
44044;BME280;29709;52.396;16.796;2023-04-25T14:45:41;100869.11;;;12.73;61.71
44044;BME280;29709;52.396;16.796;2023-04-25T14:48:55;100874.74;;;12.80;59.45
44044;BME280;29709;52.396;16.796;2023-04-25T14:52:09;100866.47;;;12.80;59.47
44044;BME280;29709;52.396;16.796;2023-04-25T14:55:22;100868.73;;;12.76;58.31
44044;BME280;29709;52.396;16.796;2023-04-25T14:58:35;100860.09;;;12.79;58.35
44044;BME280;29709;52.396;16.796;2023-04-25T15:01:49;100866.54;;;12.71;57.81
44044;BME280;29709;52.396;16.796;2023-04-25T15:05:03;100883.57;;;12.75;58.09
44044;BME280;29709;52.396;16.796;2023-04-25T15:08:16;100880.33;;;12.71;58.33
44044;BME280;29709;52.396;16.796;2023-04-25T15:11:29;100869.90;;;12.82;58.44
44044;BME280;29709;52.396;16.796;2023-04-25T15:14:43;100878.80;;;12.92;58.77
44044;BME280;29709;52.396;16.796;2023-04-25T15:17:57;100880.70;;;12.91;58.86
44044;BME280;29709;52.396;16.796;2023-04-25T15:21:10;100872.95;;;12.95;59.19
44044;BME280;29709;52.396;16.796;2023-04-25T15:24:23;100879.70;;;12.92;58.77
44044;BME280;29709;52.396;16.796;2023-04-25T15:27:38;100888.01;;;12.84;59.35
44044;BME280;29709;52.396;16.796;2023-04-25T15:30:56;100890.25;;;12.81;58.80
44044;BME280;29709;52.396;16.796;2023-04-25T15:34:10;100889.79;;;12.69;58.86
44044;BME280;29709;52.396;16.796;2023-04-25T15:37:23;100885.20;;;12.61;59.49
44044;BME280;29709;52.396;16.796;2023-04-25T15:40:37;100886.40;;;12.59;59.04
44044;BME280;29709;52.396;16.796;2023-04-25T15:43:52;100890.75;;;12.53;59.34
44044;BME280;29709;52.396;16.796;2023-04-25T15:47:06;100891.97;;;12.51;59.12
44044;BME280;29709;52.396;16.796;2023-04-25T15:50:20;100902.81;;;12.52;59.38
44044;BME280;29709;52.396;16.796;2023-04-25T15:53:33;100877.66;;;12.47;59.03
44044;BME280;29709;52.396;16.796;2023-04-25T15:56:47;100905.10;;;12.40;59.15
44044;BME280;29709;52.396;16.796;2023-04-25T16:00:01;100902.36;;;12.32;58.16
44044;BME280;29709;52.396;16.796;2023-04-25T16:03:25;100904.94;;;12.34;57.90
44044;BME280;29709;52.396;16.796;2023-04-25T16:06:39;100909.10;;;12.30;54.65
44044;BME280;29709;52.396;16.796;2023-04-25T16:09:54;100914.09;;;12.26;55.17
44044;BME280;29709;52.396;16.796;2023-04-25T16:13:09;100913.59;;;12.23;55.00
44044;BME280;29709;52.396;16.796;2023-04-25T16:16:23;100908.57;;;12.26;55.02
44044;BME280;29709;52.396;16.796;2023-04-25T16:19:36;100909.43;;;12.27;55.35
44044;BME280;29709;52.396;16.796;2023-04-25T16:22:49;100920.81;;;12.24;55.62
44044;BME280;29709;52.396;16.796;2023-04-25T16:26:03;100921.37;;;12.11;55.79
44044;BME280;29709;52.396;16.796;2023-04-25T16:29:16;100918.80;;;12.01;55.91
44044;BME280;29709;52.396;16.796;2023-04-25T16:32:29;100921.37;;;12.03;56.21
44044;BME280;29709;52.396;16.796;2023-04-25T16:35:43;100922.91;;;12.05;55.86
44044;BME280;29709;52.396;16.796;2023-04-25T16:38:56;100940.12;;;12.07;54.63
44044;BME280;29709;52.396;16.796;2023-04-25T16:42:09;100932.89;;;12.06;53.63
44044;BME280;29709;52.396;16.796;2023-04-25T16:45:22;100945.66;;;11.91;52.57
44044;BME280;29709;52.396;16.796;2023-04-25T16:48:36;100942.39;;;11.88;51.78